Tiempo atmosférico en la estación meteorológica de Es Mercadal, Illes Balears (77 m.)



Fecha
DESCASC
Temp. máxima en grados centígrados (hora)
DESCASC
Temp. mínima en grados centígrados (hora)
DESCASC
Temp. media en grados centígrados
DESCASC
Racha de viento máxima en m/sg (hora)
DESCASC
Velocidad máxima media en intervalos de 10 minutos(hora)
DESCASC
Precipitaciones diarias en mm
DESCASC
Precipitaciones de 00:00 a 06:00 en mm
DESCASC
Precipitaciones de 06:00 a 12:00 en mm
DESCASC
Precipitaciones de 12:00 a 18:00 en mm
DESCASC
Precipitaciones de 18:00 a 24:00 en mm
DESCASC
05-12-2019 18.9 (14:50) 10.1 (07:50) 14.5 6.11 (15:10) 3.89 (15:10) 0 0 0 0 0
04-12-2019 15.8 (02:00) 10.7 (13:50) 13.3 18.06 (07:10) 11.11 (08:30) 27.6 3.2 10.6 13.8 0
03-12-2019 15.6 (22:10) 11.1 (00:00) 13.4 17.78 (23:30) 10.28 (23:30) 0 0 0 0 0
02-12-2019 14.8 (11:10) 12.8 (00:00) 13.8 11.94 (19:40) 8.33 (11:40) 0.4 0.2 0.2 0 0
01-12-2019 17.7 (13:00) 12.8 (00:00) 15.3 11.67 (00:40) 8.06 (00:30) 0 0 0 0 0
30-11-2019 17.1 (12:50) 12.1 (00:00) 14.6 11.39 (21:50) 7.5 (22:30) 0 0 0 0 0
29-11-2019 18.7 (13:50) 11.4 (00:00) 15.1 8.61 (01:50) 6.11 (01:30) 0 0 0 0 0
28-11-2019 18.9 (15:00) 12.6 (00:00) 15.8 13.89 (13:10) 8.89 (12:10) 0 0 0 0 0
27-11-2019 18.7 (10:40) 12.8 (00:00) 15.8 13.33 (02:20) 9.72 (11:30) 0 0 0 0 0
26-11-2019 17.2 (11:20) 12 (00:00) 14.6 13.61 (23:50) 8.61 (21:30) 0 0 0 0 0
25-11-2019 17.1 (14:10) 10.8 (00:00) 14 13.61 (13:10) 7.22 (12:20) 0 0 0 0 0
24-11-2019 15.6 (15:30) 10.6 (00:00) 13.1 10.28 (00:10) 5.56 (12:40) 2.8 2.6 0.2 0 0
23-11-2019 16.3 (09:50) 11.7 (00:00) 14 17.22 (00:10) 10.56 (04:20) 24 18.4 0.2 3.4 2
22-11-2019 16 (21:10) 10.4 (00:00) 13.2 15.83 (23:20) 10 (23:40) 12.2 0 4 3.4 4.8
21-11-2019 15.9 (15:10) 10.2 (00:00) 13 11.67 (13:20) 8.06 (13:30) 1 0 1 0 0
20-11-2019 14.4 (11:00) 7 (00:00) 10.7 8.89 (19:10) 5.28 (19:10) 0.8 0 0 0 0.8
19-11-2019 14.1 (14:00) 7.7 (00:00) 10.9 11.39 (00:40) 7.22 (00:30) 0.8 0 0.8 0 0
18-11-2019 14.7 (02:10) 10.6 (00:00) 12.7 16.39 (20:00) 10.56 (17:10) 9.4 3.6 1 4.8 0
17-11-2019 15.1 (14:30) 10.2 (00:00) 12.7 14.17 (00:20) 8.89 (13:50) 0 0 0 0 0
16-11-2019 13.1 (13:40) 8.5 (00:00) 10.8 14.17 (23:40) 8.61 (23:40) 0 0 0 0 0
15-11-2019 12.7 (15:30) 8 (00:00) 10.3 12.78 (12:50) 9.72 (12:50) 0 0 0 0 0
14-11-2019 17.5 (11:20) 9 (00:00) 13.3 19.17 (13:20) 13.06 (13:50) 2.2 0 0 1.4 0.8
13-11-2019 14 (11:20) 10 (00:00) 12 8.61 (03:30) 4.72 (03:30) 7.8 0 1.4 6.4 0
12-11-2019 14.5 (14:20) 11.8 (00:00) 13.2 22.78 (02:50) 14.17 (02:00) 0 0 0 0 0
11-11-2019 14.4 (23:10) 10.2 (03:40) 12.3 26.67 (05:50) 18.89 (05:50) 17 16.8 0.2 0 0
10-11-2019 15.5 (02:00) 9.2 (00:00) 12.3 23.61 (23:59) 14.17 (22:10) 32.8 2.4 26.6 3.2 0.6
09-11-2019 16.7 (14:00) 11.1 (00:00) 13.9 11.39 (06:20) 5.83 (04:00) 0 0 0 0 0
08-11-2019 14.6 (13:10) 10.5 (00:00) 12.6 20 (20:30) 10.83 (20:30) 1.6 0 0 1 0.6

Gráficas

Temp. máximas Temp. mínimas Temp. medias Precipitaciones Rachas de viento máximas Velocidades máximas media en intervalos de 10 minutos

Datos horarios

Fecha y hora oficial Temperatura (ºC) Velocidad del viento (km/h) Dirección del viento Racha (km/h) Dirección de racha Precipitación (mm) Presión (hPa) Tendencia (hPa) Humedad (%)
2019-12-07 23:00:00 10.8 3 Sudoeste 4 Sudoeste 0 -- -- 94
2019-12-07 22:00:00 10.7 2 Sudoeste 4 Sudoeste 0 -- -- 93
2019-12-07 21:00:00 9.9 3 Sur 4 Sur 0 -- -- 93
2019-12-07 20:00:00 11.2 0 Calma 4 Sur 0 -- -- 92
2019-12-07 19:00:00 11.3 2 Sur 3 Sur 0 -- -- 90
2019-12-07 18:00:00 12 2 Oeste 4 Noroeste 0 -- -- 87
2019-12-07 17:00:00 14.2 3 Norte 7 Norte 0 -- -- 79
2019-12-07 16:00:00 15.8 2 Noroeste 9 Norte 0 -- -- 74
2019-12-07 15:00:00 14.5 5 Norte 10 Norte 0 -- -- 80
2019-12-07 14:00:00 14.3 6 Norte 9 Norte 0 -- -- 80
2019-12-07 13:00:00 14.9 4 Noroeste 12 Norte 0 -- -- 82
2019-12-07 12:00:00 14.3 6 Norte 12 Norte 0 -- -- 89
2019-12-07 11:00:00 13.8 4 Norte 9 Norte 0 -- -- 93
2019-12-07 10:00:00 13 3 Sudoeste 13 Sur 0.2 -- -- 95
2019-12-07 09:00:00 10.6 2 Sudoeste 8 Sur 0 -- -- 95
2019-12-07 08:00:00 10.3 5 Sur 9 Sur 0 -- -- 96
2019-12-07 07:00:00 9.9 4 Sur 6 Sur 0 -- -- 95
2019-12-07 06:00:00 10.4 0 Calma 7 Sur 0 -- -- 95
2019-12-07 05:00:00 10.7 0 Calma 5 Sudoeste 0 -- -- 94
2019-12-07 04:00:00 10.3 4 Sudoeste 8 Sur 0 -- -- 94
2019-12-07 03:00:00 10.5 0 Calma 4 Sudoeste 0 -- -- 95
2019-12-07 02:00:00 10.5 3 Sudoeste 4 Sur 0 -- -- 95
2019-12-07 01:00:00 10.7 2 Sudoeste 5 Sudoeste 0 -- -- 94
2019-12-07 00:00:00 10.7 4 Oeste 5 Sudoeste 0 -- -- 94
2019-12-06 23:00:00 10.8 4 Sudoeste 6 Sur 0 -- -- 94
2019-12-06 22:00:00 10.9 5 Sur 6 Sur 0 -- -- 94
2019-12-06 21:00:00 11 2 Sudoeste 4 Oeste 0 -- -- 94
2019-12-06 20:00:00 11.5 0 Calma 4 Norte 0 -- -- 93
2019-12-06 19:00:00 12.1 0 Calma 4 Norte 0 -- -- 90
2019-12-06 18:00:00 12.7 3 Noroeste 7 Norte 0 -- -- 89
2019-12-06 17:00:00 14 5 Norte 14 Norte 0 -- -- 85
2019-12-06 16:00:00 14.8 9 Norte 15 Norte 0 -- -- 82
2019-12-06 15:00:00 15 9 Noroeste 23 Norte 0 -- -- 82
2019-12-06 14:00:00 15.8 16 Norte 22 Norte 0 -- -- 79
2019-12-06 13:00:00 16.3 9 Norte 15 Noroeste 0 -- -- 76
2019-12-06 12:00:00 16.3 5 Noroeste 17 Oeste 0 -- -- 80
2019-12-06 11:00:00 15.4 5 Sudoeste 10 Oeste 0 -- -- 91
2019-12-06 10:00:00 14 0 Calma 5 Sudoeste 0 -- -- 93
2019-12-06 09:00:00 11.3 3 Sudoeste 5 Sudoeste 0.2 -- -- 95
2019-12-06 08:00:00 11.2 3 Sudoeste 6 Sudoeste 0 -- -- 95
2019-12-06 07:00:00 11.5 2 Sudoeste 6 Sur 0 -- -- 93
2019-12-06 06:00:00 11.5 4 Sudoeste 8 Sudoeste 0 -- -- 94
2019-12-06 05:00:00 11.3 4 Oeste 7 Sudoeste 0 -- -- 93
2019-12-06 04:00:00 11.5 5 Oeste 8 Oeste 0 -- -- 93
2019-12-06 03:00:00 11.3 8 Sudoeste 8 Sudoeste 0 -- -- 94
2019-12-06 02:00:00 10.8 5 Sudoeste 9 Sudoeste 0 -- -- 93
2019-12-06 01:00:00 11.4 4 Sudoeste 10 Sur 0 -- -- 91
2019-12-06 00:00:00 10.8 6 Sudoeste 8 Sudoeste 0 -- -- 93
2019-12-05 23:00:00 11.5 3 Sur 10 Sudoeste 0 -- -- 91
2019-12-05 22:00:00 11.7 6 Sudoeste 8 Sudoeste 0 -- -- 91
2019-12-05 21:00:00 11.9 3 Sudoeste 4 Sudoeste 0 -- -- 91
2019-12-05 20:00:00 11.4 0 Calma 6 Sur 0 -- -- 89
2019-12-05 19:00:00 12 0 Calma 5 Sur 0 -- -- 88
2019-12-05 18:00:00 13.1 2 Sur 4 Sur 0 -- -- 82
2019-12-05 17:00:00 15.1 4 Sudoeste 18 Sudoeste 0 -- -- 74
2019-12-05 16:00:00 16.5 10 Sudoeste 22 Sudoeste 0 -- -- 72
2019-12-05 15:00:00 17.2 10 Sur 19 Sudoeste 0 -- -- 66
2019-12-05 14:00:00 18.2 2 Oeste 15 Sur 0 -- -- 66
2019-12-05 13:00:00 16.3 9 Sudoeste 15 Sur 0 -- -- 75
2019-12-05 12:00:00 16.3 3 Sur 12 Sur 0 -- -- 84
2019-12-05 11:00:00 15.9 7 Sur 10 Sur 0 -- -- 89
2019-12-05 10:00:00 14.5 4 Sudeste 8 Sur 0 -- -- 92
2019-12-05 09:00:00 11.8 7 Sur 12 Sur 0 -- -- 95
2019-12-05 08:00:00 10.7 7 Sur 10 Sudeste 0 -- -- 96
2019-12-05 07:00:00 10.4 2 Oeste 4 Sudoeste 0 -- -- 96
2019-12-05 06:00:00 10.9 0 Calma 4 Sudoeste 0 -- -- 95
2019-12-05 05:00:00 10.8 0 Calma 6 Norte 0 -- -- 95
2019-12-05 04:00:00 11.4 4 Oeste 8 Oeste 0 -- -- 94
2019-12-05 03:00:00 11.9 6 Norte 16 Norte 0 -- -- 95
2019-12-05 02:00:00 12.6 0 Calma 8 Sudoeste 0 -- -- 95
2019-12-05 01:00:00 12.9 0 Calma 4 Sudoeste 0 -- -- 95
2019-12-05 00:00:00 11.9 4 Oeste 7 Sudoeste 0 -- -- 95
2019-12-04 23:00:00 11.7 0 Calma 5 Oeste 0 -- -- 92
2019-12-04 22:00:00 11.6 0 Calma 7 Sur 0 -- -- 92
2019-12-04 21:00:00 12.5 5 Sur 13 Sudeste 0 -- -- 89
2019-12-04 20:00:00 13.8 8 Sudeste 33 Este 0 -- -- 87
2019-12-04 19:00:00 14 13 Sudeste 28 Este 0 -- -- 90
2019-12-04 18:00:00 12.9 15 Este 25 Este 0 -- -- 93
2019-12-04 17:00:00 12 0 Calma 19 Nordeste 0 -- -- 93
2019-12-04 16:00:00 11.3 10 Nordeste 13 Nordeste 0.2 -- -- 94
2019-12-04 15:00:00 11.1 5 Nordeste 15 Sur 1.2 -- -- 94
2019-12-04 14:00:00 10.8 3 Sudoeste 13 Este 9.2 -- -- 94
2019-12-04 13:00:00 12 6 Norte 44 Este 3.2 -- -- 93
2019-12-04 12:00:00 12.2 14 Este 33 Este 3 -- -- 93
2019-12-04 11:00:00 12.8 17 Nordeste 38 Este 5.4 -- -- 91
2019-12-04 10:00:00 13.8 21 Este 50 Este 1.6 -- -- 89
2019-12-04 09:00:00 14.5 22 Este 62 Este 0 -- -- 84
2019-12-04 08:00:00 15.6 29 Este 65 Este 0 -- -- 89
2019-12-04 07:00:00 15.5 37 Este 57 Este 0.6 -- -- 89
2019-12-04 06:00:00 15.3 31 Este 59 Este 0 -- -- 90
2019-12-04 05:00:00 15 30 Este 55 Este 3 -- -- 90
2019-12-04 04:00:00 15.3 32 Este 58 Este 0.2 -- -- 88
2019-12-04 03:00:00 15.7 27 Este 55 Este 0 -- -- 88
2019-12-04 02:00:00 15.8 33 Nordeste 57 Nordeste 0 -- -- 89
2019-12-04 01:00:00 15.6 35 Este 55 Este 0 -- -- 90
2019-12-04 00:00:00 15.6 35 Nordeste 64 Este 0 -- -- 89
2019-12-03 23:00:00 15.6 32 Este 55 Nordeste 0 -- -- 89
2019-12-03 22:00:00 15.5 32 Nordeste 46 Este 0 -- -- 87
2019-12-03 21:00:00 15.4 31 Nordeste 49 Nordeste 0 -- -- 87
2019-12-03 20:00:00 15.2 23 Nordeste 43 Este 0 -- -- 86
2019-12-03 19:00:00 15.1 26 Nordeste 45 Nordeste 0 -- -- 86
2019-12-03 18:00:00 15 24 Nordeste 40 Nordeste 0 -- -- 86
2019-12-03 17:00:00 14.7 19 Nordeste 35 Nordeste 0 -- -- 84
2019-12-03 16:00:00 14.5 19 Nordeste 32 Nordeste 0 -- -- 81
2019-12-03 15:00:00 14.2 18 Nordeste 33 Nordeste 0 -- -- 78
2019-12-03 14:00:00 14.1 18 Nordeste 32 Nordeste 0 -- -- 78
2019-12-03 13:00:00 14 15 Nordeste 33 Nordeste 0 -- -- 79
2019-12-03 12:00:00 13.5 25 Nordeste 36 Nordeste 0 -- -- 75
2019-12-03 11:00:00 12.7 24 Nordeste 38 Nordeste 0 -- -- 77
2019-12-03 10:00:00 12.2 23 Nordeste 36 Nordeste 0 -- -- 76
2019-12-03 09:00:00 11.4 22 Norte 43 Norte 0 -- -- 76
2019-12-03 08:00:00 11.2 28 Norte 44 Nordeste 0 -- -- 74
2019-12-03 07:00:00 11.3 28 Norte 42 Norte 0 -- -- 74
2019-12-03 06:00:00 11.1 24 Norte 50 Norte 0 -- -- 76
2019-12-03 05:00:00 11.8 27 Norte 45 Norte 0 -- -- 72
2019-12-03 04:00:00 12 26 Norte 42 Nordeste 0 -- -- 72
2019-12-03 03:00:00 12.1 26 Norte 40 Norte 0 -- -- 72
2019-12-03 02:00:00 12.3 24 Nordeste 45 Nordeste 0 -- -- 72
2019-12-03 01:00:00 12.6 26 Nordeste 41 Nordeste 0 -- -- 73
2019-12-03 00:00:00 13 28 Nordeste 41 Nordeste 0 -- -- 75
2019-12-02 23:00:00 13.1 24 Nordeste 39 Nordeste 0 -- -- 73
2019-12-02 22:00:00 13.1 26 Nordeste 41 Norte 0 -- -- 70
2019-12-02 21:00:00 13.1 28 Nordeste 40 Nordeste 0 -- -- 71
2019-12-02 20:00:00 12.9 30 Nordeste 43 Nordeste 0 -- -- 74
2019-12-02 19:00:00 13 29 Nordeste 40 Nordeste 0 -- -- 75
2019-12-02 18:00:00 12.8 24 Nordeste 38 Nordeste 0 -- -- 75
2019-12-02 17:00:00 12.9 22 Nordeste 38 Nordeste 0 -- -- 75
2019-12-02 16:00:00 13.5 23 Nordeste 39 Nordeste 0 -- -- 72
2019-12-02 15:00:00 13.7 21 Nordeste 36 Nordeste 0 -- -- 76
2019-12-02 14:00:00 13.6 22 Norte 36 Norte 0 -- -- 75
2019-12-02 13:00:00 14 23 Norte 39 Nordeste 0 -- -- 74
2019-12-02 12:00:00 14.3 23 Nordeste 41 Nordeste 0 -- -- 73
2019-12-02 11:00:00 14.6 25 Nordeste 37 Nordeste 0 -- -- 70
2019-12-02 10:00:00 13.8 22 Nordeste 37 Nordeste 0 -- -- 80
2019-12-02 09:00:00 13.4 21 Nordeste 31 Nordeste 0 -- -- 84
2019-12-02 08:00:00 13.2 22 Nordeste 34 Nordeste 0.2 -- -- 85
2019-12-02 07:00:00 13.4 13 Nordeste 26 Nordeste 0 -- -- 88
2019-12-02 06:00:00 13.5 12 Nordeste 26 Nordeste 0 -- -- 90
2019-12-02 05:00:00 13.6 13 Nordeste 24 Nordeste 0 -- -- 92
2019-12-02 04:00:00 13.8 14 Nordeste 26 Nordeste 0.2 -- -- 93
2019-12-02 03:00:00 13.9 16 Nordeste 26 Nordeste 0 -- -- 92
2019-12-02 02:00:00 13.3 3 Nordeste 9 Norte 0 -- -- 92
2019-12-02 01:00:00 12.9 5 Noroeste 6 Noroeste 0 -- -- 92
2019-12-02 00:00:00 12.8 3 Nordeste 8 Norte 0 -- -- 91
2019-12-01 23:00:00 13.1 5 Nordeste 6 Nordeste 0 -- -- 90
2019-12-01 22:00:00 13.2 3 Noroeste 4 Norte 0 -- -- 90
2019-12-01 21:00:00 14.1 4 Nordeste 6 Nordeste 0 -- -- 88
2019-12-01 20:00:00 14.4 3 Norte 6 Nordeste 0 -- -- 87
2019-12-01 19:00:00 14.4 3 Nordeste 6 Norte 0 -- -- 86
2019-12-01 18:00:00 14.4 0 Calma 8 Noroeste 0 -- -- 85
2019-12-01 17:00:00 15.2 6 Noroeste 17 Noroeste 0 -- -- 83
2019-12-01 16:00:00 16.4 10 Sudoeste 21 Sudoeste 0 -- -- 84
2019-12-01 15:00:00 16.5 15 Sudoeste 23 Sudoeste 0 -- -- 83
2019-12-01 14:00:00 17.1 15 Sudoeste 35 Sudoeste 0 -- -- 78
2019-12-01 13:00:00 17.7 15 Sudoeste 29 Sudoeste 0 -- -- 73
2019-12-01 12:00:00 17.2 18 Sudoeste 28 Sur 0 -- -- 77
2019-12-01 11:00:00 16.1 19 Sudoeste 33 Sudoeste 0 -- -- 81
2019-12-01 10:00:00 15.7 20 Sudoeste 35 Sudoeste 0 -- -- 84
2019-12-01 09:00:00 15.6 20 Sudoeste 38 Sudoeste 0 -- -- 85
2019-12-01 08:00:00 15.2 21 Sudoeste 39 Sudoeste 0 -- -- 85
2019-12-01 07:00:00 15.2 24 Sur 41 Sudoeste 0 -- -- 86
2019-12-01 06:00:00 15.2 26 Sur 41 Sur 0 -- -- 89
2019-12-01 05:00:00 15.2 24 Sur 37 Sur 0 -- -- 89
2019-12-01 04:00:00 14.9 22 Sur 39 Sur 0 -- -- 90
2019-12-01 03:00:00 15.2 23 Sur 41 Sur 0 -- -- 90
2019-12-01 02:00:00 15.1 24 Sudoeste 41 Sur 0 -- -- 90
2019-12-01 01:00:00 15.3 28 Sur 42 Sur 0 -- -- 90
2019-12-01 00:00:00 15.3 24 Sur 40 Sur 0 -- -- 89
2019-11-30 23:00:00 15.2 26 Sur 41 Sur 0 -- -- 88
2019-11-30 22:00:00 15.4 24 Sudoeste 41 Sudoeste 0 -- -- 86
2019-11-30 21:00:00 15.2 26 Sur 35 Sur 0 -- -- 86
2019-11-30 20:00:00 15.1 18 Sur 28 Sur 0 -- -- 88
2019-11-30 19:00:00 15 17 Sur 31 Sur 0 -- -- 89
2019-11-30 18:00:00 15.2 20 Sur 32 Sur 0 -- -- 89
2019-11-30 17:00:00 15.4 19 Sur 32 Sur 0 -- -- 87
2019-11-30 16:00:00 15.6 20 Sudoeste 34 Sudoeste 0 -- -- 85
2019-11-30 15:00:00 16.2 17 Sudoeste 35 Sudoeste 0 -- -- 82
2019-11-30 14:00:00 16.4 25 Sudoeste 36 Sudoeste 0 -- -- 80
2019-11-30 13:00:00 16.9 24 Sudoeste 36 Sudoeste 0 -- -- 80
2019-11-30 12:00:00 16.9 23 Sudoeste 35 Sur 0 -- -- 80
2019-11-30 11:00:00 16.3 22 Sudoeste 33 Sudoeste 0 -- -- 83
2019-11-30 10:00:00 16 19 Sur 28 Sur 0 -- -- 87
2019-11-30 09:00:00 14 4 Sur 17 Sudeste 0 -- -- 89
2019-11-30 08:00:00 13.3 10 Sur 18 Sudeste 0 -- -- 87
2019-11-30 07:00:00 13.6 14 Sur 18 Sur 0 -- -- 86
2019-11-30 06:00:00 13.4 13 Sudeste 17 Sudeste 0 -- -- 86
2019-11-30 05:00:00 13 6 Sur 14 Sur 0 -- -- 84
2019-11-30 04:00:00 12.9 5 Sur 10 Sur 0 -- -- 83
2019-11-30 03:00:00 13.4 8 Sur 16 Sudeste 0 -- -- 82
2019-11-30 02:00:00 13 8 Sur 17 Sur 0 -- -- 82
2019-11-30 01:00:00 12.2 8 Sur 14 Sur 0 -- -- 83
2019-11-30 00:00:00 12.9 10 Sur 15 Sur 0 -- -- 83
2019-11-29 23:00:00 11.4 5 Sur 9 Sur 0 -- -- 86
2019-11-29 22:00:00 11.7 3 Sudeste 6 Sudeste 0 -- -- 85
2019-11-29 21:00:00 12.2 0 Calma 4 Nordeste 0 -- -- 85
2019-11-29 20:00:00 12.1 3 Oeste 5 Oeste 0 -- -- 87
2019-11-29 19:00:00 12.9 2 Oeste 6 Nordeste 0 -- -- 84
2019-11-29 18:00:00 13.8 0 Calma 9 Nordeste 0 -- -- 77
2019-11-29 17:00:00 15.5 6 Nordeste 18 Nordeste 0 -- -- 73
2019-11-29 16:00:00 17 12 Nordeste 19 Nordeste 0 -- -- 67
2019-11-29 15:00:00 17.5 8 Norte 23 Norte 0 -- -- 74
2019-11-29 14:00:00 18.1 15 Norte 22 Norte 0 -- -- 67
2019-11-29 13:00:00 17.4 8 Oeste 20 Oeste 0 -- -- 71
2019-11-29 12:00:00 18.1 11 Oeste 20 Oeste 0 -- -- 71
2019-11-29 11:00:00 17.1 14 Oeste 26 Oeste 0 -- -- 78
2019-11-29 10:00:00 15.8 11 Oeste 22 Sudoeste 0 -- -- 82
2019-11-29 09:00:00 14.5 10 Oeste 21 Sudoeste 0 -- -- 83
2019-11-29 08:00:00 13.6 16 Sudoeste 22 Sudoeste 0 -- -- 85
2019-11-29 07:00:00 13.8 14 Sudoeste 21 Sudoeste 0 -- -- 84
2019-11-29 06:00:00 13.9 13 Sudoeste 23 Sudoeste 0 -- -- 84
2019-11-29 05:00:00 13.7 12 Sudoeste 20 Sudoeste 0 -- -- 86
2019-11-29 04:00:00 13.4 8 Sur 17 Oeste 0 -- -- 86
2019-11-29 03:00:00 14 10 Sudoeste 30 Sudoeste 0 -- -- 85
2019-11-29 02:00:00 14.4 21 Sudoeste 31 Sudoeste 0 -- -- 86
2019-11-29 01:00:00 14.1 14 Sudoeste 30 Sudoeste 0 -- -- 86
2019-11-29 00:00:00 14.2 18 Sudoeste 30 Sudoeste 0 -- -- 83
2019-11-28 23:00:00 14.2 17 Sudoeste 30 Sudoeste 0 -- -- 83
2019-11-28 22:00:00 14.4 18 Sudoeste 26 Sudoeste 0 -- -- 83
2019-11-28 21:00:00 14.2 16 Sudoeste 24 Sudoeste 0 -- -- 83
2019-11-28 20:00:00 14.4 13 Sur 19 Sudoeste 0 -- -- 77
2019-11-28 19:00:00 14.9 11 Sudoeste 21 Sudoeste 0 -- -- 77
2019-11-28 18:00:00 15 12 Sudoeste 15 Oeste 0 -- -- 77
2019-11-28 17:00:00 16.4 7 Sudoeste 20 Sudoeste 0 -- -- 71
2019-11-28 16:00:00 18.4 9 Sudoeste 24 Sudoeste 0 -- -- 59
2019-11-28 15:00:00 18.9 14 Oeste 35 Sudoeste 0 -- -- 55
2019-11-28 14:00:00 18.5 22 Oeste 50 Oeste 0 -- -- 53
2019-11-28 13:00:00 18.1 30 Oeste 46 Oeste 0 -- -- 55
2019-11-28 12:00:00 18 25 Oeste 42 Oeste 0 -- -- 55
2019-11-28 11:00:00 17.3 25 Oeste 41 Noroeste 0 -- -- 66
2019-11-28 10:00:00 16.1 22 Sudoeste 37 Oeste 0 -- -- 70
2019-11-28 09:00:00 14.6 18 Oeste 28 Sudoeste 0 -- -- 73
2019-11-28 08:00:00 14 17 Sudoeste 26 Oeste 0 -- -- 78
2019-11-28 07:00:00 13.6 10 Oeste 19 Oeste 0 -- -- 75
2019-11-28 06:00:00 13.7 9 Oeste 22 Oeste 0 -- -- 77
2019-11-28 05:00:00 13 14 Sudoeste 23 Sudoeste 0 -- -- 85
2019-11-28 04:00:00 13.7 18 Sudoeste 25 Sudoeste 0 -- -- 83
2019-11-28 03:00:00 13.6 14 Sudoeste 22 Sudoeste 0 -- -- 87
2019-11-28 02:00:00 13 14 Sudoeste 20 Sudoeste 0 -- -- 91
2019-11-28 01:00:00 13.4 13 Sudoeste 22 Sudoeste 0 -- -- 90
2019-11-28 00:00:00 14 17 Sudoeste 21 Sudoeste 0 -- -- 88
2019-11-27 23:00:00 13.5 12 Sur 15 Sudoeste 0 -- -- 85
2019-11-27 22:00:00 13.3 11 Sudoeste 15 Sur 0 -- -- 82
2019-11-27 21:00:00 13 8 Sudoeste 16 Sur 0 -- -- 78
2019-11-27 20:00:00 13.8 4 Sudoeste 14 Sudoeste 0 -- -- 69
2019-11-27 19:00:00 14.2 7 Sudoeste 13 Sudoeste 0 -- -- 72
2019-11-27 18:00:00 15.2 10 Oeste 17 Oeste 0 -- -- 65
2019-11-27 17:00:00 15.8 11 Oeste 27 Oeste 0 -- -- 67
2019-11-27 16:00:00 17.4 13 Oeste 37 Oeste 0 -- -- 62
2019-11-27 15:00:00 18.3 15 Oeste 35 Oeste 0 -- -- 61
2019-11-27 14:00:00 18.3 22 Oeste 41 Oeste 0 -- -- 65
2019-11-27 06:00:00 15.7 24 Sudoeste 40 Sudoeste 0 -- -- 90
2019-11-27 05:00:00 15.6 28 Sudoeste 42 Sudoeste 0 -- -- 89
2019-11-27 04:00:00 15.6 32 Sudoeste 47 Sudoeste 0 -- -- 89
2019-11-27 03:00:00 15.8 32 Sudoeste 48 Sudoeste 0 -- -- 90
2019-11-27 02:00:00 15.4 28 Sudoeste 44 Sudoeste 0 -- -- 89
2019-11-27 01:00:00 15.3 30 Sudoeste 48 Sudoeste 0 -- -- 89
2019-11-27 00:00:00 15.4 26 Sudoeste 49 Sudoeste 0 -- -- 89
2019-11-26 23:00:00 15.5 27 Sudoeste 40 Sudoeste 0 -- -- 88
2019-11-26 22:00:00 15.3 24 Sudoeste 46 Sudoeste 0 -- -- 87
2019-11-26 21:00:00 15.4 26 Sudoeste 41 Sudoeste 0 -- -- 87
2019-11-26 20:00:00 15.5 23 Sudoeste 34 Sudoeste 0 -- -- 87
2019-11-26 19:00:00 15.7 24 Sudoeste 37 Sudoeste 0 -- -- 86
2019-11-26 18:00:00 15.5 19 Sudoeste 32 Sudoeste 0 -- -- 85
2019-11-26 17:00:00 16.2 17 Sudoeste 28 Sudoeste 0 -- -- 84
2019-11-26 16:00:00 16.6 20 Sudoeste 29 Sudoeste 0 -- -- 84
2019-11-26 15:00:00 16.9 19 Sudoeste 33 Sur 0 -- -- 83
2019-11-26 14:00:00 16.7 24 Sudoeste 42 Sur 0 -- -- 83
2019-11-26 13:00:00 17.1 21 Sudoeste 37 Sudoeste 0 -- -- 83
2019-11-26 12:00:00 16.9 23 Sudoeste 32 Sudoeste 0 -- -- 78
2019-11-26 11:00:00 17 21 Sur 32 Sur 0 -- -- 73
2019-11-26 10:00:00 16 17 Sur 24 Sudoeste 0 -- -- 86
2019-11-26 09:00:00 14.3 17 Sur 24 Sudoeste 0 -- -- 91
2019-11-26 08:00:00 13.1 15 Sur 23 Sudoeste 0 -- -- 93
2019-11-26 07:00:00 12.8 15 Sur 18 Sur 0 -- -- 92
2019-11-26 06:00:00 12.6 9 Sudoeste 11 Sur 0 -- -- 92
2019-11-26 05:00:00 12.7 9 Sudoeste 12 Sudoeste 0 -- -- 90
2019-11-26 04:00:00 12.6 9 Sudoeste 13 Sudoeste 0 -- -- 86
2019-11-26 03:00:00 12.4 4 Sudoeste 12 Sudoeste 0 -- -- 88
2019-11-26 02:00:00 12.6 5 Sudoeste 9 Sudoeste 0 -- -- 90
2019-11-26 01:00:00 12.5 3 Sur 8 Sudoeste 0 -- -- 90
2019-11-26 00:00:00 12 5 Sudoeste 6 Sudoeste 0 -- -- 89
2019-11-25 23:00:00 12 4 Sudoeste 6 Sur 0 -- -- 86
2019-11-25 22:00:00 13.2 4 Noroeste 9 Noroeste 0 -- -- 82
2019-11-25 21:00:00 13.2 0 Calma 15 Noroeste 0 -- -- 84
2019-11-25 20:00:00 13.9 12 Noroeste 23 Noroeste 0 -- -- 81
2019-11-25 19:00:00 13.9 11 Noroeste 22 Noroeste 0 -- -- 81
2019-11-25 18:00:00 14 8 Noroeste 21 Norte 0 -- -- 80
2019-11-25 17:00:00 14.7 14 Noroeste 26 Noroeste 0 -- -- 74
2019-11-25 16:00:00 15.6 18 Noroeste 33 Noroeste 0 -- -- 71
2019-11-25 15:00:00 16.5 13 Noroeste 30 Noroeste 0 -- -- 66
2019-11-25 14:00:00 17 12 Noroeste 49 Noroeste 0 -- -- 60
2019-11-25 13:00:00 16.3 20 Noroeste 44 Oeste 0 -- -- 63
2019-11-25 12:00:00 16 22 Oeste 44 Oeste 0 -- -- 66
2019-11-25 11:00:00 15.4 24 Oeste 38 Oeste 0 -- -- 67
2019-11-25 10:00:00 15.1 14 Oeste 27 Oeste 0 -- -- 71
2019-11-25 09:00:00 13.7 14 Oeste 30 Oeste 0 -- -- 72
2019-11-25 08:00:00 12.2 14 Oeste 28 Oeste 0 -- -- 74
2019-11-25 07:00:00 11.9 6 Oeste 15 Oeste 0 -- -- 74
2019-11-25 06:00:00 11.1 6 Oeste 10 Oeste 0 -- -- 78
2019-11-25 05:00:00 11.3 7 Oeste 12 Oeste 0 -- -- 78
2019-11-25 04:00:00 11.6 5 Oeste 11 Sudoeste 0 -- -- 80
2019-11-25 03:00:00 11.4 8 Oeste 16 Oeste 0 -- -- 81
2019-11-25 02:00:00 11.4 6 Oeste 15 Oeste 0 -- -- 80
2019-11-25 01:00:00 11.3 10 Sudoeste 13 Sudoeste 0 -- -- 81
2019-11-25 00:00:00 11.1 8 Sudoeste 14 Oeste 0 -- -- 81
2019-11-24 23:00:00 10.7 8 Sudoeste 13 Oeste 0 -- -- 79
2019-11-24 22:00:00 11.1 6 Oeste 18 Oeste 0 -- -- 79
2019-11-24 21:00:00 11.2 2 Sur 15 Oeste 0 -- -- 78
2019-11-24 20:00:00 11.7 8 Sudoeste 15 Sudoeste 0 -- -- 77
2019-11-24 19:00:00 12.2 11 Sudoeste 18 Sudoeste 0 -- -- 76
2019-11-24 18:00:00 12.4 0 Calma 5 Oeste 0 -- -- 79
2019-11-24 17:00:00 13.4 3 Noroeste 9 Norte 0 -- -- 73
2019-11-24 16:00:00 14.3 8 Norte 18 Noroeste 0 -- -- 68
2019-11-24 15:00:00 15 9 Noroeste 21 Norte 0 -- -- 69
2019-11-24 14:00:00 14.1 13 Noroeste 24 Oeste 0 -- -- 69
2019-11-24 13:00:00 14.7 15 Noroeste 28 Oeste 0 -- -- 66
2019-11-24 12:00:00 14.9 19 Oeste 26 Oeste 0 -- -- 65
2019-11-24 11:00:00 14.6 13 Oeste 20 Oeste 0 -- -- 68
2019-11-24 10:00:00 14.2 4 Oeste 19 Oeste 0 -- -- 74
2019-11-24 09:00:00 12.2 12 Oeste 22 Oeste 0 -- -- 85
2019-11-24 08:00:00 11 5 Sudoeste 9 Oeste 0 -- -- 90
2019-11-24 07:00:00 11.2 5 Sudoeste 14 Sudoeste 0.2 -- -- 90
2019-11-24 06:00:00 11.3 13 Sudoeste 19 Sudoeste 0.6 -- -- 89
2019-11-24 05:00:00 11.4 7 Sur 14 Sudoeste 1.6 -- -- 87
2019-11-24 04:00:00 12.2 9 Oeste 32 Oeste 0 -- -- 77
2019-11-24 03:00:00 12.2 17 Oeste 30 Oeste 0 -- -- 76
2019-11-24 02:00:00 12.3 15 Oeste 31 Oeste 0 -- -- 80
2019-11-24 01:00:00 11.3 9 Sudoeste 37 Sudoeste 0.4 -- -- 87
2019-11-24 00:00:00 11.7 19 Oeste 35 Sudoeste 1.8 -- -- 83
2019-11-23 23:00:00 12.6 3 Noroeste 27 Norte 0.2 -- -- 76
2019-11-23 22:00:00 13.8 15 Noroeste 33 Oeste 0 -- -- 73
2019-11-23 21:00:00 13.4 17 Oeste 40 Oeste 0 -- -- 68
2019-11-23 20:00:00 13.5 23 Oeste 53 Oeste 0 -- -- 66
2019-11-23 19:00:00 13.3 24 Oeste 36 Oeste 0 -- -- 68
2019-11-23 18:00:00 13 21 Oeste 42 Oeste 0 -- -- 71
2019-11-23 17:00:00 13 21 Oeste 39 Oeste 0.2 -- -- 76
2019-11-23 16:00:00 13.4 22 Oeste 39 Oeste 0 -- -- 74
2019-11-23 15:00:00 13.4 14 Oeste 31 Noroeste 0 -- -- 76
2019-11-23 14:00:00 13.3 13 Noroeste 27 Noroeste 3.2 -- -- 83
2019-11-23 13:00:00 15.1 14 Sudoeste 30 Sudoeste 0 -- -- 71
2019-11-23 12:00:00 15.4 10 Sudoeste 27 Sudoeste 0.2 -- -- 77
2019-11-23 11:00:00 15.1 25 Sudoeste 37 Sudoeste 0 -- -- 70
2019-11-23 10:00:00 15.9 23 Sudoeste 39 Sudoeste 0 -- -- 72
2019-11-23 09:00:00 15.6 26 Sudoeste 37 Sudoeste 0 -- -- 77
2019-11-23 08:00:00 15 23 Sudoeste 35 Sudoeste 0 -- -- 79
2019-11-23 07:00:00 15.2 21 Sudoeste 40 Sudoeste 0 -- -- 87
2019-11-23 06:00:00 16 25 Sudoeste 54 Sudoeste 0.2 -- -- 91
2019-11-23 05:00:00 16.1 37 Sudoeste 58 Sudoeste 0 -- -- 92
2019-11-23 04:00:00 15.7 37 Sudoeste 60 Sudoeste 7.8 -- -- 93
2019-11-23 03:00:00 15 21 Sudoeste 48 Sur 0.2 -- -- 93
2019-11-23 02:00:00 14.6 32 Sur 54 Sur 6.8 -- -- 93
2019-11-23 01:00:00 14.2 37 Sur 62 Sur 3.4 -- -- 92
2019-11-23 00:00:00 14.3 36 Sur 57 Sudeste 3.2 -- -- 91
2019-11-22 23:00:00 14.6 24 Sur 48 Sur 0.6 -- -- 87
2019-11-22 22:00:00 14.8 24 Sur 49 Sur 1 -- -- 87
2019-11-22 21:00:00 15.8 24 Sur 49 Sudoeste 0 -- -- 80
2019-11-22 20:00:00 15.8 32 Sur 48 Sudoeste 0 -- -- 81
2019-11-22 19:00:00 15.7 30 Sur 42 Sur 0 -- -- 82
2019-11-22 18:00:00 15.5 30 Sur 46 Sur 0 -- -- 85
2019-11-22 17:00:00 15.6 23 Sudoeste 43 Sudoeste 0 -- -- 87
2019-11-22 16:00:00 15.6 24 Sudoeste 43 Sudoeste 0 -- -- 87
2019-11-22 15:00:00 15.7 24 Sur 44 Sudoeste 3.2 -- -- 89
2019-11-22 14:00:00 15.6 23 Sudoeste 37 Sur 0.2 -- -- 87
2019-11-22 13:00:00 14.9 16 Sur 27 Sur 0 -- -- 92
2019-11-22 12:00:00 13.8 17 Sur 33 Sur 2.4 -- -- 92
2019-11-22 11:00:00 14.1 25 Sur 36 Sur 1.2 -- -- 92
2019-11-22 10:00:00 13.8 20 Sur 36 Sur 0 -- -- 90
2019-11-22 09:00:00 13.3 16 Sur 26 Sur 0 -- -- 91
2019-11-22 08:00:00 12.9 16 Sur 33 Sur 0.4 -- -- 91
2019-11-22 07:00:00 13.2 17 Sur 24 Sur 0 -- -- 89
2019-11-22 06:00:00 12.4 8 Sur 17 Sur 0 -- -- 89
2019-11-22 05:00:00 13 10 Sur 17 Sur 0 -- -- 89
2019-11-22 04:00:00 12.1 8 Sur 10 Sur 0 -- -- 89
2019-11-22 03:00:00 11.5 4 Sur 6 Sur 0 -- -- 87
2019-11-22 02:00:00 11.2 4 Sur 9 Sur 0 -- -- 87
2019-11-22 01:00:00 10.4 3 Sudoeste 5 Sur 0 -- -- 84
2019-11-22 00:00:00 11.4 3 Sur 5 Sur 0 -- -- 78
2019-11-21 23:00:00 11.7 5 Sur 17 Sudoeste 0 -- -- 78
2019-11-21 22:00:00 11.9 13 Sudoeste 17 Sudoeste 0 -- -- 76
2019-11-21 21:00:00 12 6 Sudoeste 10 Sudoeste 0 -- -- 75
2019-11-21 20:00:00 12.6 7 Sudoeste 12 Sudoeste 0 -- -- 74
2019-11-21 19:00:00 12.8 7 Sudoeste 12 Sudoeste 0 -- -- 75
2019-11-21 18:00:00 13.3 3 Sudoeste 13 Oeste 0 -- -- 73
2019-11-21 17:00:00 14.1 7 Oeste 31 Sudoeste 0 -- -- 68
2019-11-21 16:00:00 15.1 15 Sudoeste 38 Sudoeste 0 -- -- 65
2019-11-21 15:00:00 15.3 22 Sudoeste 37 Sudoeste 0 -- -- 65
2019-11-21 14:00:00 15.5 24 Sudoeste 42 Sudoeste 0 -- -- 65
2019-11-21 13:00:00 15.5 26 Sudoeste 36 Sudoeste 0 -- -- 65
2019-11-21 12:00:00 14.9 20 Sudoeste 29 Sudoeste 0 -- -- 67
2019-11-21 11:00:00 14.7 18 Sudoeste 29 Sudoeste 0 -- -- 70
2019-11-21 10:00:00 13.8 18 Sudoeste 27 Sudoeste 0 -- -- 79
2019-11-21 09:00:00 12.1 13 Sudoeste 21 Sudoeste 0 -- -- 88
2019-11-21 08:00:00 10.4 11 Sudoeste 16 Sur 0 -- -- 91
2019-11-21 07:00:00 11 8 Sur 24 Sur 1 -- -- 90
2019-11-21 06:00:00 11 12 Sur 23 Sur 0 -- -- 89
2019-11-21 05:00:00 10.5 4 Sudoeste 13 Sur 0 -- -- 89
2019-11-21 04:00:00 10.9 3 Sur 8 Sudoeste 0 -- -- 89
2019-11-21 03:00:00 10.4 5 Sudoeste 8 Sur 0 -- -- 89
2019-11-21 02:00:00 10.9 6 Sudoeste 16 Sudoeste 0 -- -- 88
2019-11-21 01:00:00 11.3 12 Sur 15 Sudoeste 0 -- -- 88
2019-11-21 00:00:00 10.8 7 Sur 16 Sur 0 -- -- 88
2019-11-20 23:00:00 10.7 10 Sur 19 Sudoeste 0 -- -- 88
2019-11-20 22:00:00 11.3 18 Sudoeste 29 Sudoeste 0.8 -- -- 84
2019-11-20 21:00:00 11.7 12 Sur 25 Sur 0 -- -- 85
2019-11-20 20:00:00 11.5 15 Sudeste 32 Sur 0 -- -- 84
2019-11-20 19:00:00 11.8 18 Sudeste 26 Sur 0 -- -- 79
2019-11-20 18:00:00 12.8 12 Sur 23 Sur 0 -- -- 74
2019-11-20 17:00:00 13.1 8 Sur 14 Sur 0 -- -- 69
2019-11-20 16:00:00 13.4 7 Sudoeste 23 Sur 0 -- -- 65
2019-11-20 15:00:00 13.9 10 Sudoeste 17 Sudoeste 0 -- -- 61
2019-11-20 14:00:00 13.7 11 Sur 19 Sur 0 -- -- 64
2019-11-20 13:00:00 13.5 12 Sur 19 Sudoeste 0 -- -- 63
2019-11-20 12:00:00 13.6 9 Sur 14 Sur 0 -- -- 64
2019-11-20 11:00:00 14.4 7 Sudeste 11 Sudeste 0 -- -- 63
2019-11-20 10:00:00 12.3 3 Sur 8 Sur 0 -- -- 75
2019-11-20 09:00:00 10.2 3 Sur 7 Sudeste 0 -- -- 79
2019-11-20 08:00:00 8.2 4 Sur 6 Sur 0 -- -- 82
2019-11-20 07:00:00 7.8 3 Sur 6 Sur 0 -- -- 82
2019-11-20 06:00:00 8 3 Sur 6 Sur 0 -- -- 83
2019-11-20 05:00:00 7.6 4 Sur 7 Sur 0 -- -- 83
2019-11-20 04:00:00 8 3 Sur 6 Sur 0 -- -- 83
2019-11-20 03:00:00 8.3 4 Sur 5 Sur 0 -- -- 81
2019-11-20 02:00:00 7.9 3 Sudoeste 6 Sudoeste 0 -- -- 80
2019-11-20 01:00:00 8.2 4 Sur 5 Sur 0 -- -- 81
2019-11-20 00:00:00 8.2 3 Sudoeste 5 Sudoeste 0 -- -- 82
2019-11-19 23:00:00 8.1 3 Sudoeste 4 Sudoeste 0 -- -- 84
2019-11-19 22:00:00 7.8 0 Calma -- -- 0 -- -- 84
2019-11-19 21:00:00 8.1 3 Sur 5 Sur 0 -- -- 82
2019-11-19 20:00:00 8.7 2 Sur 3 Este 0 -- -- 77
2019-11-19 19:00:00 9.8 2 Sudoeste 4 Norte 0 -- -- 74
2019-11-19 18:00:00 10.7 2 Noroeste 12 Noroeste 0 -- -- 72
2019-11-19 17:00:00 11.8 6 Noroeste 18 Norte 0 -- -- 69
2019-11-19 16:00:00 13.1 15 Norte 30 Oeste 0 -- -- 66
2019-11-19 15:00:00 13.2 24 Oeste 33 Oeste 0 -- -- 60
2019-11-19 14:00:00 14.1 21 Sudoeste 32 Oeste 0 -- -- 63
2019-11-19 13:00:00 13.5 19 Sudoeste 27 Sudoeste 0 -- -- 60
2019-11-19 12:00:00 12.9 15 Sudoeste 23 Sudoeste 0 -- -- 72
2019-11-19 11:00:00 10.8 6 Sur 27 Noroeste 0.8 -- -- 81
2019-11-19 10:00:00 12.8 3 Oeste 6 Sudoeste 0 -- -- 63
2019-11-19 09:00:00 10.6 3 Norte 7 Noroeste 0 -- -- 73
2019-11-19 08:00:00 9.8 4 Norte 18 Norte 0 -- -- 71
2019-11-19 07:00:00 9.7 8 Norte 21 Norte 0 -- -- 70
2019-11-19 06:00:00 9.9 15 Norte 36 Norte 0 -- -- 63
2019-11-19 05:00:00 10 16 Norte 35 Norte 0 -- -- 64
2019-11-19 04:00:00 10.3 18 Norte 34 Norte 0 -- -- 64
2019-11-19 03:00:00 10.6 18 Norte 40 Norte 0 -- -- 65
2019-11-19 02:00:00 10.5 21 Norte 41 Norte 0 -- -- 66
2019-11-19 01:00:00 10.7 24 Norte 41 Norte 0 -- -- 68
2019-11-19 00:00:00 11.1 24 Norte 46 Norte 0 -- -- 70
2019-11-18 23:00:00 11.2 24 Norte 46 Norte 0 -- -- 70
2019-11-18 22:00:00 11.3 24 Norte 51 Norte 0 -- -- 71
2019-11-18 21:00:00 11.6 30 Norte 57 Norte 0 -- -- 72
2019-11-18 20:00:00 11.6 38 Norte 59 Norte 0 -- -- 74
2019-11-18 19:00:00 11.9 27 Norte 54 Norte 0 -- -- 73
2019-11-18 18:00:00 11.6 32 Norte 57 Norte 0 -- -- 69
2019-11-18 17:00:00 11.3 31 Norte 56 Norte 0 -- -- 77
2019-11-18 16:00:00 11.1 28 Norte 46 Norte 1.2 -- -- 88
2019-11-18 15:00:00 10.6 24 Norte 49 Norte 3.2 -- -- 89
2019-11-18 14:00:00 12.3 22 Norte 40 Norte 0.4 -- -- 80
2019-11-18 13:00:00 12.7 21 Norte 32 Nordeste 0 -- -- 76
2019-11-18 12:00:00 12.5 14 Norte 26 Norte 0 -- -- 82
2019-11-18 11:00:00 11.7 9 Norte 20 Norte 0.2 -- -- 90
2019-11-18 10:00:00 11.4 11 Norte 30 Nordeste 0.8 -- -- 91
2019-11-18 09:00:00 10.9 6 Norte 11 Norte 0 -- -- 92
2019-11-18 08:00:00 11 6 Norte 18 Norte 0 -- -- 91
2019-11-18 07:00:00 11.4 6 Sudoeste 12 Sudoeste 0 -- -- 91
2019-11-18 06:00:00 11.4 7 Sudoeste 12 Oeste 0.2 -- -- 90
2019-11-18 05:00:00 11.7 9 Sudoeste 17 Oeste 3 -- -- 89
2019-11-18 04:00:00 12.8 8 Sudoeste 13 Sudoeste 0.4 -- -- 79
2019-11-18 03:00:00 14.3 10 Sudoeste 27 Sudoeste 0 -- -- 71
2019-11-18 02:00:00 14.6 15 Sudoeste 24 Sudoeste 0 -- -- 64
2019-11-18 01:00:00 13.4 11 Sudoeste 21 Sudoeste 0 -- -- 69
2019-11-18 00:00:00 13 12 Sudoeste 26 Sudoeste 0 -- -- 68
2019-11-17 23:00:00 13.5 18 Sudoeste 33 Sudoeste 0 -- -- 63
2019-11-17 22:00:00 13.1 17 Sudoeste 27 Sudoeste 0 -- -- 67
2019-11-17 21:00:00 12.8 16 Sudoeste 24 Sudoeste 0 -- -- 65
2019-11-17 20:00:00 12.4 12 Sudoeste 18 Sudoeste 0 -- -- 61
2019-11-17 19:00:00 12.1 8 Sudoeste 18 Sudoeste 0 -- -- 64
2019-11-17 18:00:00 12.8 15 Sudoeste 24 Sudoeste 0 -- -- 61
2019-11-17 17:00:00 13.2 12 Sudoeste 26 Oeste 0 -- -- 61
2019-11-17 16:00:00 13.7 14 Sudoeste 32 Sudoeste 0 -- -- 54
2019-11-17 15:00:00 14.1 23 Oeste 44 Sudoeste 0 -- -- 49
2019-11-17 14:00:00 14.8 24 Oeste 48 Oeste 0 -- -- 48
2019-11-17 13:00:00 14.4 29 Oeste 45 Oeste 0 -- -- 50
2019-11-17 12:00:00 13.6 24 Oeste 40 Sudoeste 0 -- -- 55
2019-11-17 11:00:00 13.8 23 Oeste 37 Noroeste 0 -- -- 55
2019-11-17 10:00:00 12.9 24 Oeste 37 Oeste 0 -- -- 57
2019-11-17 09:00:00 12.1 15 Oeste 22 Oeste 0 -- -- 62
2019-11-17 08:00:00 10.5 13 Oeste 22 Oeste 0 -- -- 66
2019-11-17 07:00:00 10.7 10 Oeste 17 Oeste 0 -- -- 68
2019-11-17 06:00:00 10.7 9 Oeste 22 Oeste 0 -- -- 70
2019-11-17 05:00:00 10.6 12 Oeste 22 Oeste 0 -- -- 69
2019-11-17 04:00:00 10.9 17 Noroeste 37 Noroeste 0 -- -- 64
2019-11-17 03:00:00 11.4 19 Noroeste 39 Oeste 0 -- -- 65
2019-11-17 02:00:00 11.7 22 Noroeste 37 Oeste 0 -- -- 60
2019-11-17 01:00:00 11.8 23 Noroeste 51 Noroeste 0 -- -- 61
2019-11-17 00:00:00 11.5 24 Noroeste 51 Noroeste 0 -- -- 60
2019-11-16 23:00:00 11.4 19 Noroeste 42 Noroeste 0 -- -- 63
2019-11-16 22:00:00 11.4 14 Noroeste 36 Norte 0 -- -- 64
2019-11-16 21:00:00 11.5 25 Noroeste 40 Norte 0 -- -- 58
2019-11-16 20:00:00 11.6 23 Norte 42 Norte 0 -- -- 57
2019-11-16 19:00:00 11.8 21 Norte 35 Norte 0 -- -- 62
2019-11-16 18:00:00 11.5 16 Norte 30 Norte 0 -- -- 70
2019-11-16 17:00:00 11.5 17 Norte 27 Norte 0 -- -- 73
2019-11-16 16:00:00 11.3 17 Norte 33 Norte 0 -- -- 75
2019-11-16 15:00:00 11.6 15 Norte 30 Norte 0 -- -- 76
2019-11-16 14:00:00 12.8 15 Nordeste 25 Norte 0 -- -- 68
2019-11-16 13:00:00 12.9 15 Nordeste 24 Nordeste 0 -- -- 66
2019-11-16 12:00:00 12.7 14 Nordeste 23 Nordeste 0 -- -- 71
2019-11-16 11:00:00 12.5 9 Este 17 Nordeste 0 -- -- 71
2019-11-16 10:00:00 11.7 10 Este 24 Este 0 -- -- 74
2019-11-16 09:00:00 10.1 4 Este 6 Este 0 -- -- 80
2019-11-16 08:00:00 9.2 0 Calma 7 Oeste 0 -- -- 79
2019-11-16 07:00:00 9.1 0 Calma 6 Este 0 -- -- 76
2019-11-16 06:00:00 9.5 4 Nordeste 21 Noroeste 0 -- -- 75
2019-11-16 05:00:00 10.1 13 Noroeste 36 Oeste 0 -- -- 75
2019-11-16 04:00:00 9.3 6 Sudoeste 9 Sudoeste 0 -- -- 64
2019-11-16 03:00:00 9.8 5 Sudoeste 14 Sudoeste 0 -- -- 64
2019-11-16 02:00:00 9 7 Sudoeste 13 Sudoeste 0 -- -- 67
2019-11-16 01:00:00 8.8 10 Sudoeste 15 Sudoeste 0 -- -- 71
2019-11-16 00:00:00 9.3 12 Sudoeste 19 Sudoeste 0 -- -- 68
2019-11-15 23:00:00 9.1 11 Sudoeste 15 Sudoeste 0 -- -- 73
2019-11-15 22:00:00 9.5 11 Sudoeste 15 Sudoeste 0 -- -- 72
2019-11-15 21:00:00 9.8 12 Sudoeste 19 Sudoeste 0 -- -- 71
2019-11-15 20:00:00 9.4 8 Oeste 15 Sudoeste 0 -- -- 74
2019-11-15 19:00:00 9 11 Oeste 14 Oeste 0 -- -- 73
2019-11-15 18:00:00 10.4 6 Sudoeste 14 Sudoeste 0 -- -- 68
2019-11-15 17:00:00 12.1 9 Oeste 28 Oeste 0 -- -- 65
2019-11-15 16:00:00 12.3 21 Oeste 33 Oeste 0 -- -- 62
2019-11-15 15:00:00 12.5 18 Oeste 36 Oeste 0 -- -- 63
2019-11-15 14:00:00 12 22 Oeste 44 Oeste 0 -- -- 63
2019-11-15 13:00:00 12.1 30 Oeste 46 Oeste 0 -- -- 64
2019-11-15 12:00:00 12 23 Oeste 45 Oeste 0 -- -- 68
2019-11-15 11:00:00 12.5 22 Sudoeste 39 Oeste 0 -- -- 70
2019-11-15 10:00:00 11.8 14 Sudoeste 25 Sudoeste 0 -- -- 72
2019-11-15 09:00:00 10.5 12 Sudoeste 32 Sudoeste 0 -- -- 74
2019-11-15 08:00:00 8.3 6 Sudoeste 10 Sur 0 -- -- 85
2019-11-15 07:00:00 8.2 3 Sur 7 Este 0 -- -- 85
2019-11-15 06:00:00 8.8 2 Nordeste 26 Noroeste 0 -- -- 81
2019-11-15 05:00:00 10.3 11 Sur 13 Sudoeste 0 -- -- 68
2019-11-15 04:00:00 8.6 6 Sudoeste 9 Sur 0 -- -- 80
2019-11-15 03:00:00 8.9 5 Sudoeste 8 Sur 0 -- -- 75
2019-11-15 02:00:00 9.2 7 Sudoeste 13 Sudoeste 0 -- -- 78
2019-11-15 01:00:00 8.9 10 Sudoeste 12 Sudoeste 0 -- -- 81
2019-11-15 00:00:00 9.1 9 Sudoeste 11 Sudoeste 0 -- -- 78
2019-11-14 23:00:00 9.9 8 Sudoeste 23 Oeste 0 -- -- 74
2019-11-14 22:00:00 10.3 12 Sudoeste 21 Oeste 0 -- -- 81
2019-11-14 21:00:00 10.8 15 Oeste 26 Oeste 0.4 -- -- 82
2019-11-14 20:00:00 11 13 Sudoeste 22 Oeste 0 -- -- 80
2019-11-14 19:00:00 10.5 15 Oeste 38 Oeste 0.4 -- -- 83
2019-11-14 18:00:00 12.5 15 Oeste 32 Oeste 0 -- -- 74
2019-11-14 17:00:00 13.5 17 Oeste 34 Oeste 0 -- -- 78
2019-11-14 16:00:00 14.2 16 Oeste 46 Sudoeste 0.8 -- -- 81
2019-11-14 15:00:00 14.2 40 Sudoeste 68 Sudoeste 0.6 -- -- 72
2019-11-14 14:00:00 17.4 45 Sudoeste 69 Sudoeste 0 -- -- 73
2019-11-14 13:00:00 17.4 41 Sudoeste 62 Sudoeste 0 -- -- 79
2019-11-14 12:00:00 17.3 35 Sudoeste 60 Sur 0 -- -- 80
2019-11-14 11:00:00 17.3 35 Sur 53 Sur 0 -- -- 81
2019-11-14 10:00:00 16.3 28 Sur 51 Sur 0 -- -- 77
2019-11-14 09:00:00 15.4 24 Sur 41 Sudoeste 0 -- -- 73
2019-11-14 08:00:00 14.8 23 Sur 37 Sur 0 -- -- 76
2019-11-14 07:00:00 14.1 19 Sudoeste 31 Sudoeste 0 -- -- 78
2019-11-14 06:00:00 13.4 15 Sur 36 Sudoeste 0 -- -- 80
2019-11-14 05:00:00 13.4 22 Sudoeste 31 Sur 0 -- -- 81
2019-11-14 04:00:00 12.5 19 Sudoeste 26 Sur 0 -- -- 84
2019-11-14 03:00:00 11.6 18 Sudoeste 27 Sudoeste 0 -- -- 88
2019-11-14 02:00:00 9.9 13 Sur 16 Sur 0 -- -- 90
2019-11-14 01:00:00 9.9 5 Sudoeste 9 Sur 0 -- -- 90
2019-11-14 00:00:00 10 6 Sur 10 Sur 0 -- -- 90
2019-11-13 23:00:00 10.3 3 Oeste 5 Oeste 0 -- -- 89
2019-11-13 22:00:00 10.8 4 Sur 6 Sudoeste 0 -- -- 88
2019-11-13 21:00:00 12.1 0 Calma 12 Norte 0 -- -- 84
2019-11-13 20:00:00 11.9 3 Noroeste 13 Nordeste 0 -- -- 87
2019-11-13 19:00:00 11.4 3 Norte 13 Nordeste 0 -- -- 91
2019-11-13 18:00:00 11.4 5 Norte 16 Noroeste 0.2 -- -- 91
2019-11-13 17:00:00 11.6 5 Nordeste 19 Nordeste 0 -- -- 90
2019-11-13 16:00:00 11.9 14 Nordeste 24 Nordeste 0.2 -- -- 90
2019-11-13 15:00:00 12.1 12 Norte 21 Norte 1.6 -- -- 91
2019-11-13 14:00:00 11.5 11 Norte 23 Norte 1.4 -- -- 89
2019-11-13 13:00:00 12 6 Noroeste 13 Oeste 3 -- -- 88
2019-11-13 12:00:00 13.1 5 Oeste 8 Oeste 1.2 -- -- 83
2019-11-13 11:00:00 13.7 0 Calma 5 Sur 0.2 -- -- 74
2019-11-13 10:00:00 13.5 4 Sur 10 Sur 0 -- -- 73
2019-11-13 09:00:00 13.3 4 Sudoeste 6 Sudoeste 0 -- -- 71
2019-11-13 08:00:00 13.4 5 Noroeste 11 Noroeste 0 -- -- 69
2019-11-13 07:00:00 12.8 6 Oeste 21 Noroeste 0 -- -- 69
2019-11-13 06:00:00 13.8 12 Oeste 24 Noroeste 0 -- -- 67
2019-11-13 05:00:00 13 7 Oeste 20 Oeste 0 -- -- 71
2019-11-13 04:00:00 13.2 12 Oeste 31 Oeste 0 -- -- 68
2019-11-13 03:00:00 13.3 12 Sudoeste 22 Oeste 0 -- -- 68
2019-11-13 02:00:00 13.5 14 Oeste 24 Oeste 0 -- -- 69
2019-11-13 01:00:00 12.9 12 Oeste 19 Oeste 0 -- -- 69
2019-11-13 00:00:00 12.8 9 Oeste 15 Oeste 0 -- -- 67
2019-11-12 23:00:00 13 8 Oeste 19 Oeste 0 -- -- 65
2019-11-12 22:00:00 13 10 Oeste 21 Oeste 0 -- -- 65
2019-11-12 21:00:00 12.6 10 Oeste 28 Oeste 0 -- -- 66
2019-11-12 20:00:00 13.3 12 Noroeste 27 Noroeste 0 -- -- 56
2019-11-12 19:00:00 12.9 13 Noroeste 22 Oeste 0 -- -- 55
2019-11-12 18:00:00 12.8 13 Noroeste 29 Oeste 0 -- -- 61
2019-11-12 17:00:00 13.7 10 Oeste 31 Noroeste 0 -- -- 63
2019-11-12 16:00:00 14.1 15 Noroeste 35 Noroeste 0 -- -- 59
2019-11-12 15:00:00 14 21 Noroeste 44 Noroeste 0 -- -- 56
2019-11-12 14:00:00 14.3 26 Norte 55 Norte 0 -- -- 59
2019-11-12 13:00:00 14.3 33 Norte 61 Norte 0 -- -- 56
2019-11-12 12:00:00 13.9 42 Norte 71 Norte 0 -- -- 59
2019-11-12 11:00:00 13.8 42 Norte 63 Norte 0 -- -- 58
2019-11-12 10:00:00 13.4 37 Norte 61 Norte 0 -- -- 59
2019-11-12 09:00:00 12.6 36 Norte 67 Norte 0 -- -- 58
2019-11-12 08:00:00 12.2 37 Norte 72 Norte 0 -- -- 61
2019-11-12 07:00:00 12 46 Norte 74 Norte 0 -- -- 61
2019-11-12 06:00:00 12.2 40 Norte 69 Norte 0 -- -- 54
2019-11-12 05:00:00 12.3 40 Norte 70 Norte 0 -- -- 55
2019-11-12 04:00:00 12.8 40 Norte 79 Norte 0 -- -- 50
2019-11-12 03:00:00 13.3 45 Norte 82 Norte 0 -- -- 50
2019-11-12 02:00:00 13.7 51 Norte 76 Norte 0 -- -- 50
2019-11-12 01:00:00 14 46 Norte 75 Norte 0 -- -- 49
2019-11-12 00:00:00 14.4 42 Norte 69 Norte 0 -- -- 62
2019-11-11 23:00:00 14.2 31 Norte 56 Norte 0 -- -- 64
2019-11-11 22:00:00 14.1 35 Norte 55 Norte 0 -- -- 61
2019-11-11 21:00:00 14.2 28 Norte 46 Norte 0 -- -- 62
2019-11-11 20:00:00 13.9 25 Norte 46 Norte 0 -- -- 68
2019-11-11 19:00:00 14 31 Norte 47 Norte 0 -- -- 72
2019-11-11 18:00:00 13.9 32 Norte 52 Norte 0 -- -- 75
2019-11-11 17:00:00 13.8 28 Norte 58 Norte 0 -- -- 75
2019-11-11 16:00:00 13.7 31 Norte 55 Norte 0 -- -- 77
2019-11-11 15:00:00 13.6 32 Norte 61 Norte 0 -- -- 78
2019-11-11 14:00:00 13.8 45 Norte 67 Norte 0 -- -- 75
2019-11-11 13:00:00 13.5 43 Norte 75 Norte 0 -- -- 77
2019-11-11 12:00:00 13.5 42 Norte 67 Norte 0 -- -- 78
2019-11-11 11:00:00 13.1 41 Norte 71 Norte 0 -- -- 78
2019-11-11 10:00:00 12.9 45 Norte 92 Norte 0 -- -- 79
2019-11-11 09:00:00 12.9 49 Norte 88 Norte 0 -- -- 78
2019-11-11 08:00:00 12.4 57 Norte 91 Norte 0 -- -- 79
2019-11-11 07:00:00 11.9 59 Norte 95 Norte 0.2 -- -- 80
2019-11-11 06:00:00 11.2 59 Norte 96 Norte 1.2 -- -- 83
2019-11-11 05:00:00 10.7 58 Norte 93 Noroeste 2.2 -- -- 84
2019-11-11 04:00:00 10.2 50 Noroeste 94 Norte 5.2 -- -- 85
2019-11-11 03:00:00 10.5 45 Noroeste 74 Noroeste 4.2 -- -- 84
2019-11-11 02:00:00 10.8 41 Noroeste 75 Norte 2.4 -- -- 83
2019-11-11 01:00:00 10.5 40 Noroeste 81 Norte 1.6 -- -- 84
2019-11-11 00:00:00 10.9 50 Norte 85 Norte 0.6 -- -- 77
2019-11-10 23:00:00 11.9 46 Norte 80 Noroeste 0 -- -- 70
2019-11-10 22:00:00 12.5 43 Noroeste 78 Norte 0 -- -- 65
2019-11-10 21:00:00 12.7 40 Noroeste 71 Noroeste 0 -- -- 64
2019-11-10 20:00:00 12.6 45 Norte 72 Norte 0 -- -- 58
2019-11-10 19:00:00 12.5 45 Norte 67 Norte 0 -- -- 60
2019-11-10 18:00:00 12.3 39 Norte 67 Norte 0 -- -- 62
2019-11-10 17:00:00 12.1 40 Norte 71 Norte 0 -- -- 64
2019-11-10 16:00:00 11.8 46 Norte 69 Norte 0 -- -- 64
2019-11-10 15:00:00 11.7 43 Norte 68 Noroeste 0 -- -- 68
2019-11-10 14:00:00 11.1 43 Norte 74 Noroeste 0.8 -- -- 71
2019-11-10 13:00:00 9.8 39 Norte 70 Norte 2.4 -- -- 72
2019-11-10 12:00:00 9.4 27 Norte 50 Norte 7.8 -- -- 88
2019-11-10 11:00:00 9.6 27 Norte 45 Norte 6.8 -- -- 89
2019-11-10 10:00:00 10.1 26 Norte 51 Norte 6.2 -- -- 88
2019-11-10 09:00:00 10.5 31 Norte 51 Nordeste 4.6 -- -- 87
2019-11-10 08:00:00 12 30 Norte 56 Norte 1.2 -- -- 74
2019-11-10 07:00:00 12.8 28 Nordeste 43 Norte 0 -- -- 72
2019-11-10 06:00:00 12.7 29 Norte 48 Norte 0 -- -- 82
2019-11-10 05:00:00 13 14 Noroeste 25 Noroeste 0 -- -- 80
2019-11-10 04:00:00 11.8 2 Norte 22 Oeste 1.4 -- -- 87
2019-11-10 03:00:00 12.6 15 Oeste 28 Oeste 1 -- -- 79
2019-11-10 02:00:00 15.5 15 Sudoeste 23 Sudoeste 0 -- -- 58
2019-11-10 01:00:00 15.1 14 Sudoeste 27 Sudoeste 0 -- -- 61
2019-11-10 00:00:00 14.8 13 Sudoeste 24 Sudoeste 0 -- -- 62
2019-11-09 23:00:00 14.7 18 Sudoeste 26 Sudoeste 0 -- -- 59
2019-11-09 22:00:00 14.2 18 Sudoeste 26 Sudoeste 0 -- -- 62
2019-11-09 21:00:00 13.3 12 Sudoeste 22 Oeste 0 -- -- 64
2019-11-09 20:00:00 12.5 13 Sudoeste 16 Sudoeste 0 -- -- 71
2019-11-09 19:00:00 12.6 12 Sudoeste 18 Sudoeste 0 -- -- 70
2019-11-09 18:00:00 13.1 14 Sudoeste 24 Oeste 0 -- -- 68
2019-11-09 17:00:00 14.5 9 Oeste 22 Norte 0 -- -- 65
2019-11-09 16:00:00 15.1 14 Oeste 31 Oeste 0 -- -- 56
2019-11-09 15:00:00 15.5 20 Oeste 31 Sudoeste 0 -- -- 54
2019-11-09 14:00:00 16.7 12 Oeste 23 Oeste 0 -- -- 45
2019-11-09 13:00:00 15.1 12 Norte 24 Norte 0 -- -- 52
2019-11-09 12:00:00 15.4 14 Norte 29 Norte 0 -- -- 50
2019-11-09 11:00:00 15.1 15 Norte 27 Norte 0 -- -- 47
2019-11-09 10:00:00 14.3 16 Norte 25 Norte 0 -- -- 57
2019-11-09 09:00:00 13.9 15 Noroeste 26 Norte 0 -- -- 61
2019-11-09 08:00:00 12.6 10 Noroeste 25 Noroeste 0 -- -- 68
2019-11-09 07:00:00 12 15 Noroeste 41 Noroeste 0 -- -- 66
2019-11-09 06:00:00 12.2 15 Noroeste 27 Noroeste 0 -- -- 66
2019-11-09 05:00:00 11.5 13 Oeste 28 Oeste 0 -- -- 71
2019-11-09 04:00:00 11.7 21 Oeste 30 Oeste 0 -- -- 71
2019-11-09 03:00:00 11.4 10 Oeste 20 Oeste 0 -- -- 70
2019-11-09 02:00:00 11.8 13 Oeste 27 Oeste 0 -- -- 68
2019-11-09 01:00:00 12.6 13 Noroeste 33 Noroeste 0 -- -- 64
2019-11-09 00:00:00 12.7 20 Noroeste 48 Noroeste 0 -- -- 65
2019-11-08 23:00:00 12.7 28 Oeste 55 Oeste 0 -- -- 66
2019-11-08 22:00:00 12.6 23 Oeste 45 Oeste 0 -- -- 67
2019-11-08 21:00:00 11.2 12 Oeste 72 Oeste 0.6 -- -- 74
2019-11-08 20:00:00 13.9 26 Oeste 43 Sudoeste 0 -- -- 54
2019-11-08 19:00:00 13.1 12 Oeste 31 Oeste 0 -- -- 59
2019-11-08 18:00:00 11.8 16 Oeste 36 Oeste 1 -- -- 70
2019-11-08 17:00:00 12.5 19 Oeste 53 Oeste 0 -- -- 66
2019-11-08 16:00:00 13.8 35 Oeste 64 Oeste 0 -- -- 53
2019-11-08 15:00:00 14.4 29 Oeste 54 Oeste 0 -- -- 55
2019-11-08 14:00:00 13.7 30 Oeste 50 Noroeste 0 -- -- 59
2019-11-08 13:00:00 14 29 Oeste 45 Oeste 0 -- -- 55
2019-11-08 12:00:00 14.1 29 Oeste 49 Oeste 0 -- -- 53
2019-11-08 11:00:00 12.7 18 Oeste 51 Oeste 0 -- -- 59
2019-11-08 10:00:00 12.9 18 Oeste 32 Noroeste 0 -- -- 60
2019-11-08 09:00:00 13 16 Noroeste 27 Oeste 0 -- -- 60
2019-11-08 08:00:00 13.1 14 Noroeste 33 Oeste 0 -- -- 58
2019-11-08 07:00:00 12.9 17 Oeste 31 Noroeste 0 -- -- 65
2019-11-08 06:00:00 11.6 12 Oeste 19 Oeste 0 -- -- 69
2019-11-08 05:00:00 12.2 9 Noroeste 30 Oeste 0 -- -- 69
2019-11-08 04:00:00 12.4 14 Oeste 25 Oeste 0 -- -- 64
2019-11-08 03:00:00 11.1 10 Oeste 17 Oeste 0 -- -- 74
2019-11-08 02:00:00 11.3 5 Sudoeste 12 Oeste 0 -- -- 78
2019-11-08 01:00:00 11.7 7 Norte 41 Noroeste 0 -- -- 83
2019-11-08 00:00:00 13.6 15 Oeste 31 Noroeste 0.2 -- -- 70